Time;durP1;ratioP1;P1;durP2;ratioP2;P2;SDS_P1;SDS_P2;PMS_P1;PMS_P2;Temp;Humidity;BMP_temperature;BMP_pressure;BME280_temperature;BME280_humidity;BME280_pressure;Samples;Min_cycle;Max_cycle;Signal;HPM_P1;HPM_P2
2022/08/28 00:00:45;;;;;;;9.55;5.90;;;;;;;14.97;85.03;68436.69;4917171;29;20123;-77
2022/08/28 00:03:11;;;;;;;15.20;5.97;;;;;;;;;;4908290;29;20039;-77
2022/08/28 00:05:38;;;;;;;12.23;5.70;;;;;;;14.89;85.54;68428.13;4915279;29;20455;-77
2022/08/28 00:08:04;;;;;;;11.90;5.95;;;;;;;;;;4916539;29;20440;-77
2022/08/28 00:10:29;;;;;;;12.35;6.10;;;;;;;14.80;86.01;68413.09;4914556;29;20072;-78
2022/08/28 00:12:56;;;;;;;15.13;6.90;;;;;;;14.76;85.97;68413.31;4916734;29;20073;-77
2022/08/28 00:15:26;;;;;;;14.15;6.38;;;;;;;14.78;85.99;68407.56;4914591;29;20523;-78
2022/08/28 00:17:51;;;;;;;13.82;6.50;;;;;;;;;;4898959;29;20594;-78
2022/08/28 00:20:18;;;;;;;12.32;5.80;;;;;;;;;;4915072;29;20063;-78
2022/08/28 00:22:44;;;;;;;14.45;6.05;;;;;;;;;;4908113;29;20175;-78
2022/08/28 00:25:12;;;;;;;12.48;7.13;;;;;;;14.68;86.58;68404.22;4915150;29;20365;-78
2022/08/28 00:27:53;;;;;;;12.00;6.13;;;;;;;14.72;86.46;68403.97;4921849;29;20072;-78
2022/08/28 00:30:29;;;;;;;15.50;6.93;;;;;;;14.72;86.34;68411.44;4912409;29;20036;-77
2022/08/28 00:32:57;;;;;;;14.55;6.18;;;;;;;14.69;86.42;68400.00;4915181;29;20066;-77
2022/08/28 00:35:23;;;;;;;12.05;6.90;;;;;;;;;;4913795;29;21190;-78
2022/08/28 00:37:49;;;;;;;13.23;6.13;;;;;;;;;;4914928;29;20063;-78
2022/08/28 00:40:17;;;;;;;15.07;6.75;;;;;;;14.48;87.64;68376.66;4914339;29;20044;-77
2022/08/28 00:42:45;;;;;;;13.77;6.85;;;;;;;14.42;87.96;68375.75;4914409;29;20044;-77
2022/08/28 00:45:11;;;;;;;15.68;7.57;;;;;;;;;;4912841;29;20059;-78
2022/08/28 00:47:38;;;;;;;14.10;7.25;;;;;;;;;;4894764;29;20315;-78
2022/08/28 00:50:03;;;;;;;15.95;7.57;;;;;;;14.28;88.75;68360.38;4891138;29;20051;-78
2022/08/28 00:52:29;;;;;;;13.68;6.18;;;;;;;;;;4904955;29;20052;-78
2022/08/28 00:55:10;;;;;;;12.45;6.85;;;;;;;14.16;89.04;68347.28;4898915;29;20091;-78
2022/08/28 00:57:43;;;;;;;15.57;6.75;;;;;;;14.12;89.44;68337.38;4911144;29;20075;-77
2022/08/28 01:00:16;;;;;;;14.15;6.95;;;;;;;14.13;89.37;68343.31;4914557;29;20047;-77
2022/08/28 01:02:42;;;;;;;12.65;6.90;;;;;;;14.06;89.63;68335.91;4909460;29;20044;-78
2022/08/28 01:05:08;;;;;;;17.23;7.50;;;;;;;;;;4915389;29;20032;-78
2022/08/28 01:07:35;;;;;;;14.75;6.18;;;;;;;14.00;89.98;68329.63;4913010;29;20051;-78
2022/08/28 01:10:02;;;;;;;15.70;6.80;;;;;;;13.97;90.02;68320.88;4911747;29;20044;-78
2022/08/28 01:12:30;;;;;;;12.75;6.20;;;;;;;14.00;89.89;68329.63;4913860;29;20048;-78
2022/08/28 01:14:58;;;;;;;15.55;6.75;;;;;;;;;;4914906;29;20408;-78
2022/08/28 01:17:27;;;;;;;17.90;7.20;;;;;;;13.92;90.20;68319.97;4914626;29;20075;-78
2022/08/28 01:19:59;;;;;;;12.13;6.53;;;;;;;13.91;90.22;68314.03;4915590;29;20135;-78
2022/08/28 01:22:49;;;;;;;12.00;7.07;;;;;;;13.84;90.59;68310.84;4895268;29;20044;-78
2022/08/28 01:25:21;;;;;;;14.20;7.68;;;;;;;13.73;91.26;68294.13;4909711;29;20487;-78
2022/08/28 01:27:46;;;;;;;14.50;7.25;;;;;;;13.70;91.73;68296.06;4914416;29;20040;-78
2022/08/28 01:30:15;;;;;;;17.48;7.05;;;;;;;13.72;91.26;68293.00;4902115;29;20431;-78
2022/08/28 01:32:48;;;;;;;14.80;7.35;;;;;;;13.70;91.27;68290.72;4896004;29;20048;-78
2022/08/28 01:35:17;;;;;;;12.90;7.18;;;;;;;13.63;91.53;68288.09;4914274;29;20051;-77
2022/08/28 01:37:43;;;;;;;10.35;6.60;;;;;;;;;;4912325;29;20059;-77
2022/08/28 01:40:10;;;;;;;13.50;7.43;;;;;;;;;;4914417;29;21446;-77
2022/08/28 01:42:39;;;;;;;13.73;7.55;;;;;;;;;;4913901;29;20539;-77
2022/08/28 01:45:05;;;;;;;;;;;;;;;13.54;92.39;68272.53;4914110;29;20044;-78
2022/08/28 01:47:31;;;;;;;13.65;7.38;;;;;;;13.44;92.36;68267.06;4910267;29;19923;-78
2022/08/28 01:49:56;;;;;;;15.02;7.68;;;;;;;;;;4913327;29;20141;-78
2022/08/28 01:52:22;;;;;;;13.98;7.72;;;;;;;13.38;93.22;68259.66;4913632;29;20055;-77
2022/08/28 01:54:47;;;;;;;14.75;7.75;;;;;;;13.39;93.46;68260.81;4895535;29;20048;-78
2022/08/28 01:57:13;;;;;;;16.13;7.95;;;;;;;;;;4912120;29;20103;-78
2022/08/28 01:59:38;;;;;;;16.98;7.43;;;;;;;13.50;92.83;68276.00;4913136;29;20120;-78
2022/08/28 02:02:04;;;;;;;15.05;8.20;;;;;;;;;;4914187;29;20414;-77
2022/08/28 02:04:29;;;;;;;14.35;8.00;;;;;;;13.50;93.48;68273.31;4914767;29;20131;-78
2022/08/28 02:06:54;;;;;;;14.43;8.05;;;;;;;;;;4913992;29;20048;-78
2022/08/28 02:09:20;;;;;;;16.88;8.30;;;;;;;13.53;93.31;68271.38;4914062;29;20048;-78
2022/08/28 02:11:45;;;;;;;13.05;8.18;;;;;;;;;;4913561;29;20040;-78
2022/08/28 02:14:11;;;;;;;18.15;8.85;;;;;;;13.42;93.64;68266.91;4913875;29;20048;-78
2022/08/28 02:16:36;;;;;;;14.57;8.48;;;;;;;;;;4910558;29;20250;-78
2022/08/28 02:19:01;;;;;;;14.35;8.10;;;;;;;;;;4912672;29;20400;-78
2022/08/28 02:21:27;;;;;;;16.60;9.23;;;;;;;;;;4913102;29;20040;-78
2022/08/28 02:23:52;;;;;;;17.45;8.68;;;;;;;13.27;94.25;68242.94;4909990;29;20052;-78
2022/08/28 02:26:18;;;;;;;15.98;8.40;;;;;;;13.25;94.47;68245.44;4912404;29;20044;-77
2022/08/28 02:28:43;;;;;;;21.10;10.32;;;;;;;;;;4909627;29;20044;-78
2022/08/28 02:31:10;;;;;;;16.90;9.00;;;;;;;13.05;95.39;68223.81;4913000;29;20147;-78
2022/08/28 02:33:40;;;;;;;14.02;8.98;;;;;;;13.00;95.61;68212.78;4913572;29;20526;-78
2022/08/28 02:36:09;;;;;;;15.23;9.70;;;;;;;;;;4897304;29;20072;-78
2022/08/28 02:38:35;;;;;;;12.88;8.32;;;;;;;12.93;96.10;68209.63;4913719;29;20618;-78
2022/08/28 02:41:01;;;;;;;16.80;8.38;;;;;;;12.96;96.31;68215.69;4916428;29;20411;-78
2022/08/28 02:43:26;;;;;;;16.30;9.52;;;;;;;12.87;96.44;68203.38;4913411;29;20040;-78
2022/08/28 02:45:51;;;;;;;18.38;9.45;;;;;;;12.86;96.61;68202.81;4901832;29;20119;-78
2022/08/28 02:48:17;;;;;;;16.65;8.75;;;;;;;;;;4916618;29;20044;-78
2022/08/28 02:50:42;;;;;;;16.48;8.90;;;;;;;;;;4916919;29;20200;-78
2022/08/28 02:53:07;;;;;;;13.57;8.25;;;;;;;;;;4916654;29;20040;-78
2022/08/28 02:55:33;;;;;;;14.27;8.73;;;;;;;12.81;96.83;68202.44;4913106;29;20450;-78
2022/08/28 02:57:59;;;;;;;20.17;10.15;;;;;;;12.71;97.44;68191.06;4918266;29;20047;-78
2022/08/28 03:00:25;;;;;;;17.15;8.80;;;;;;;12.75;97.19;68190.28;4916422;29;20456;-79
2022/08/28 03:02:51;;;;;;;16.50;8.90;;;;;;;;;;4918783;29;20119;-78
2022/08/28 03:05:19;;;;;;;21.00;9.25;;;;;;;12.72;97.18;68189.00;4917675;29;20099;-78
2022/08/28 03:07:45;;;;;;;14.10;8.52;;;;;;;;;;4917164;29;20064;-78
2022/08/28 03:10:11;;;;;;;13.10;8.25;;;;;;;12.64;97.30;68181.03;4916809;29;20153;-78
2022/08/28 03:12:37;;;;;;;17.25;9.13;;;;;;;;;;4916862;29;20044;-78
2022/08/28 03:15:04;;;;;;;14.43;8.70;;;;;;;12.60;97.85;68173.22;4912453;29;20399;-78
2022/08/28 03:17:30;;;;;;;22.85;9.00;;;;;;;;;;4915474;29;20059;-78
2022/08/28 03:19:56;;;;;;;16.88;8.75;;;;;;;12.55;98.77;68170.22;4916607;29;20443;-78
2022/08/28 03:23:24;;;;;;;15.90;8.93;;;;;;;12.55;98.57;68170.22;4912272;29;20047;-78
2022/08/28 03:25:06;;;;;;;16.40;8.88;;;;;;;;;;4912666;29;20135;-77
2022/08/28 03:27:32;;;;;;;18.90;9.50;;;;;;;12.51;99.00;68163.00;4912019;29;20555;-77
2022/08/28 03:29:58;;;;;;;15.75;8.80;;;;;;;12.56;98.95;68168.69;4896173;29;20757;-78
2022/08/28 03:32:24;;;;;;;18.27;9.88;;;;;;;12.53;98.91;68165.28;4914325;29;20044;-77
2022/08/28 03:34:49;;;;;;;18.55;9.43;;;;;;;12.46;99.63;68157.31;4909470;29;20068;-77
2022/08/28 03:37:15;;;;;;;16.48;9.82;;;;;;;12.42;100.00;68153.91;4897012;29;20068;-78
2022/08/28 03:39:40;;;;;;;17.35;9.20;;;;;;;12.45;99.98;68150.84;4912480;29;20044;-78
2022/08/28 03:42:06;;;;;;;14.82;9.02;;;;;;;12.50;99.50;68161.88;4913956;29;20028;-77
2022/08/28 03:44:31;;;;;;;19.75;10.02;;;;;;;12.35;100.00;68145.97;4904626;29;20040;-78
2022/08/28 03:46:57;;;;;;;18.67;10.63;;;;;;;12.29;100.00;68139.16;4912647;29;20032;-77
2022/08/28 03:49:22;;;;;;;17.00;9.73;;;;;;;;;;4912023;29;20040;-77
2022/08/28 03:51:48;;;;;;;17.55;10.13;;;;;;;12.33;100.00;68138.34;4913132;29;20048;-77
2022/08/28 03:54:13;;;;;;;17.95;10.65;;;;;;;12.30;100.00;68145.59;4911722;29;20040;-78
2022/08/28 03:56:40;;;;;;;18.27;10.30;;;;;;;12.34;100.00;68144.25;4886873;29;20079;-78
2022/08/28 03:59:06;;;;;;;16.85;10.10;;;;;;;12.32;100.00;68142.56;4890100;29;20088;-78
2022/08/28 04:01:32;;;;;;;19.55;10.68;;;;;;;12.38;100.00;68148.81;4889511;29;20131;-77
2022/08/28 04:03:58;;;;;;;18.85;10.65;;;;;;;12.29;100.00;68139.16;4891982;29;20128;-77
2022/08/28 04:06:24;;;;;;;18.90;10.57;;;;;;;12.30;100.00;68140.28;4895729;29;20118;-77
2022/08/28 04:08:49;;;;;;;16.33;10.30;;;;;;;12.33;100.00;68143.69;4890048;29;20500;-76
2022/08/28 04:11:16;;;;;;;17.52;10.07;;;;;;;;;;4883456;29;20057;-76
2022/08/28 04:13:41;;;;;;;17.33;11.02;;;;;;;12.31;100.00;68141.41;4894037;29;20048;-76
2022/08/28 04:16:09;;;;;;;15.45;11.32;;;;;;;;;;4893016;29;20065;-77
2022/08/28 04:18:35;;;;;;;19.55;11.63;;;;;;;;;;4894805;29;20104;-76
2022/08/28 04:21:04;;;;;;;20.38;12.13;;;;;;;12.27;100.00;68139.53;4905660;29;20048;-77
2022/08/28 04:23:30;;;;;;;19.55;11.55;;;;;;;12.21;100.00;68130.06;4893516;29;20052;-77
2022/08/28 04:25:56;;;;;;;17.83;11.57;;;;;;;12.20;100.00;68128.91;4893059;29;20043;-76
2022/08/28 04:28:21;;;;;;;17.13;12.32;;;;;;;;;;4893771;29;20068;-77
2022/08/28 04:30:53;;;;;;;21.35;12.05;;;;;;;12.12;100.00;68120.38;4890788;29;20056;-76
2022/08/28 04:33:19;;;;;;;18.98;10.50;;;;;;;12.15;100.00;68123.22;4890726;29;20133;-77
2022/08/28 04:35:45;;;;;;;18.55;11.40;;;;;;;12.16;100.00;68127.03;4889536;29;20057;-77
2022/08/28 04:38:10;;;;;;;22.50;12.38;;;;;;;;;;4894091;29;20044;-77
2022/08/28 04:40:38;;;;;;;14.68;11.23;;;;;;;;;;4893139;29;20044;-77
2022/08/28 04:43:03;;;;;;;20.33;11.75;;;;;;;12.07;100.00;68114.72;4876649;29;20132;-78
2022/08/28 04:45:28;;;;;;;22.48;12.77;;;;;;;;;;4885365;29;20080;-78
2022/08/28 04:47:54;;;;;;;23.38;13.38;;;;;;;12.07;100.00;68117.38;4893684;29;20045;-77
2022/08/28 04:50:19;;;;;;;20.83;13.43;;;;;;;;;;4896682;29;20040;-78
2022/08/28 04:52:44;;;;;;;20.92;13.90;;;;;;;12.08;100.00;68120.59;4887831;29;20144;-78
2022/08/28 04:55:10;;;;;;;19.05;13.25;;;;;;;12.08;100.00;68120.59;4893434;29;20573;-78
2022/08/28 04:57:35;;;;;;;20.30;13.63;;;;;;;;;;4883591;29;20051;-78
2022/08/28 05:00:01;;;;;;;20.05;13.55;;;;;;;11.98;100.00;68103.91;4885765;29;20508;-78
2022/08/28 05:02:26;;;;;;;18.83;13.02;;;;;;;12.01;100.00;68110.56;4891253;29;20044;-77
2022/08/28 05:04:51;;;;;;;20.23;14.45;;;;;;;12.03;100.00;68109.59;4894765;29;20043;-78
2022/08/28 05:07:17;;;;;;;18.65;13.55;;;;;;;12.02;100.00;68103.13;4902762;29;20036;-78
2022/08/28 05:09:42;;;;;;;20.30;13.80;;;;;;;;;;4905391;29;20416;-78
2022/08/28 05:12:07;;;;;;;21.15;13.90;;;;;;;12.15;100.00;68128.56;4915606;29;20043;-78
2022/08/28 05:14:34;;;;;;;18.65;12.40;;;;;;;12.20;100.00;68128.91;4922498;29;20047;-79
2022/08/28 05:16:59;;;;;;;21.95;14.05;;;;;;;12.16;100.00;68124.94;4914349;29;20037;-78
2022/08/28 05:19:26;;;;;;;23.77;13.82;;;;;;;12.11;100.00;68121.34;4912337;29;20130;-78
2022/08/28 05:21:52;;;;;;;22.77;13.88;;;;;;;12.15;100.00;68123.78;4911541;29;20111;-78
2022/08/28 05:24:18;;;;;;;18.92;13.20;;;;;;;12.17;100.00;68126.06;4911752;29;20044;-78
2022/08/28 05:26:43;;;;;;;20.92;12.88;;;;;;;;;;4911724;29;20127;-78
2022/08/28 05:29:09;;;;;;;19.52;12.98;;;;;;;12.21;100.00;68135.38;4911411;29;20135;-78
2022/08/28 05:31:37;;;;;;;22.10;12.88;;;;;;;12.29;100.00;68141.81;4912132;29;20197;-78
2022/08/28 05:34:03;;;;;;;20.58;12.85;;;;;;;12.21;100.00;68132.72;4911779;29;20040;-78
2022/08/28 05:36:31;;;;;;;21.15;13.13;;;;;;;;;;4912095;29;20048;-78
2022/08/28 05:38:57;;;;;;;20.40;12.95;;;;;;;12.30;100.00;68142.94;4911780;29;20504;-78
2022/08/28 05:41:30;;;;;;;20.05;13.35;;;;;;;12.41;100.00;68152.22;4911821;29;20076;-78
2022/08/28 05:43:58;;;;;;;18.35;12.93;;;;;;;12.39;100.00;68149.94;4911269;29;20562;-78
2022/08/28 05:46:26;;;;;;;23.55;12.43;;;;;;;12.38;100.00;68149.38;4911857;29;20048;-78
2022/08/28 05:48:51;;;;;;;21.00;11.90;;;;;;;12.47;100.00;68158.47;4913000;29;20048;-78
2022/08/28 05:51:20;;;;;;;20.88;13.05;;;;;;;12.40;100.00;68151.09;4893783;29;20584;-78
2022/08/28 05:53:48;;;;;;;18.08;12.10;;;;;;;12.42;100.00;68153.91;4905075;29;20052;-78
2022/08/28 05:56:15;;;;;;;19.17;12.65;;;;;;;;;;4904721;29;20064;-78
2022/08/28 05:58:40;;;;;;;24.23;12.65;;;;;;;;;;4869275;29;20135;-78
2022/08/28 06:01:14;;;;;;;20.60;10.82;;;;;;;12.65;100.00;68178.91;4909078;29;20543;-77
2022/08/28 06:03:40;;;;;;;18.77;10.75;;;;;;;;;;4910134;29;20578;-77
2022/08/28 06:06:07;;;;;;;17.50;11.15;;;;;;;12.74;100.00;68191.25;4907192;29;20056;-78
2022/08/28 06:08:32;;;;;;;17.67;10.68;;;;;;;;;;4906520;29;20048;-78
2022/08/28 06:10:59;;;;;;;18.40;10.65;;;;;;;12.84;100.00;68200.53;4910275;29;20060;-78
2022/08/28 06:13:25;;;;;;;15.48;10.18;;;;;;;12.91;100.00;68202.00;4910566;29;20048;-78
2022/08/28 06:15:50;;;;;;;13.70;10.02;;;;;;;12.98;100.00;68217.97;4908534;29;20755;-78
2022/08/28 06:18:16;;;;;;;16.25;10.05;;;;;;;13.08;100.00;68227.22;4906726;29;20538;-78
2022/08/28 06:20:44;;;;;;;19.10;9.32;;;;;;;13.16;100.00;68235.75;4906379;29;20048;-78
2022/08/28 06:23:10;;;;;;;14.18;9.35;;;;;;;;;;4910433;29;20561;-78
2022/08/28 06:25:44;;;;;;;15.18;8.70;;;;;;;13.38;99.92;68259.66;4909530;29;20119;-78
2022/08/28 06:28:09;;;;;;;15.30;9.10;;;;;;;;;;4909918;29;20056;-78
2022/08/28 06:30:36;;;;;;;19.27;9.05;;;;;;;13.48;98.63;68271.03;4909677;29;20059;-77
2022/08/28 06:33:03;;;;;;;15.75;8.27;;;;;;;13.51;98.73;68274.47;4905411;29;20044;-77
2022/08/28 06:35:30;;;;;;;14.55;8.80;;;;;;;13.71;97.79;68296.66;4909124;29;20040;-77
2022/08/28 06:37:55;;;;;;;16.98;8.88;;;;;;;;;;4909919;29;20052;-77
2022/08/28 06:40:20;;;;;;;16.35;8.63;;;;;;;13.88;96.65;68318.09;4904294;29;20052;-78
2022/08/28 06:42:46;;;;;;;14.35;9.43;;;;;;;13.88;96.71;68315.97;4890581;29;20468;-77
2022/08/28 06:45:11;;;;;;;11.95;8.30;;;;;;;;;;4893259;29;20123;-77
2022/08/28 06:47:36;;;;;;;15.73;7.88;;;;;;;;;;4909507;29;20064;-77
2022/08/28 06:50:02;;;;;;;13.93;7.72;;;;;;;14.37;94.09;68364.69;4919228;29;20048;-77
2022/08/28 06:52:29;;;;;;;11.63;6.88;;;;;;;14.61;92.08;68397.38;4902537;29;20075;-77
2022/08/28 06:54:54;;;;;;;14.00;7.22;;;;;;;14.78;90.88;68415.59;4907275;29;20048;-77
2022/08/28 06:57:20;;;;;;;14.73;7.07;;;;;;;14.92;90.25;68430.97;4903474;29;20052;-77
2022/08/28 06:59:47;;;;;;;15.23;6.22;;;;;;;15.00;89.43;68435.31;4896295;29;20104;-77
2022/08/28 07:02:13;;;;;;;11.38;5.88;;;;;;;15.05;89.38;68441.00;4876179;29;20093;-77
2022/08/28 07:04:38;;;;;;;10.82;5.60;;;;;;;;;;4883047;29;20052;-78
2022/08/28 07:07:05;;;;;;;9.90;5.15;;;;;;;15.23;88.03;68465.72;4893198;29;20055;-78
2022/08/28 07:09:30;;;;;;;8.13;5.20;;;;;;;15.33;87.75;68472.31;4893288;29;20053;-78
2022/08/28 07:11:56;;;;;;;14.73;5.20;;;;;;;15.51;86.74;68491.69;4893757;29;20096;-78
2022/08/28 07:14:22;;;;;;;11.00;4.80;;;;;;;15.65;85.58;68507.63;4893147;29;20043;-78
2022/08/28 07:16:47;;;;;;;9.82;4.30;;;;;;;;;;4891258;29;20041;-79
2022/08/28 07:19:15;;;;;;;10.52;3.28;;;;;;;15.84;82.93;68526.03;4908625;29;20048;-78
2022/08/28 07:21:42;;;;;;;11.35;4.38;;;;;;;15.88;82.44;68530.03;4891164;29;20072;-78
2022/08/28 07:24:09;;;;;;;8.18;3.60;;;;;;;;;;4900232;29;20040;-78
2022/08/28 07:26:35;;;;;;;7.45;3.88;;;;;;;;;;4908292;29;20044;-78
2022/08/28 07:29:02;;;;;;;9.07;4.10;;;;;;;16.14;81.79;68562.38;4911918;29;20047;-78
2022/08/28 07:31:28;;;;;;;7.65;3.50;;;;;;;16.23;81.15;68572.03;4893432;29;20127;-78
2022/08/28 07:33:54;;;;;;;9.02;3.85;;;;;;;16.38;80.64;68589.13;4900678;29;20127;-78
2022/08/28 07:36:24;;;;;;;6.88;3.08;;;;;;;16.46;79.33;68605.75;4895087;29;20077;-78
2022/08/28 07:38:50;;;;;;;10.93;3.70;;;;;;;16.55;78.48;68605.28;4895940;29;20056;-78
2022/08/28 07:41:16;;;;;;;8.43;3.40;;;;;;;;;;4904891;29;20048;-78
2022/08/28 07:46:26;;;;;;;7.82;2.95;;;;;;;16.67;77.71;68615.69;4915033;29;20052;-79
2022/08/28 07:48:52;;;;;;;6.88;2.85;;;;;;;16.76;76.89;68630.75;4909529;29;20044;-77
2022/08/28 07:51:18;;;;;;;7.97;2.83;;;;;;;16.89;76.83;68645.63;4914797;29;20123;-80
2022/08/28 07:53:43;;;;;;;7.70;2.97;;;;;;;16.99;75.96;68656.44;4917809;29;20412;-80
2022/08/28 07:56:10;;;;;;;6.78;3.13;;;;;;;17.06;75.46;68670.38;4905816;29;20065;-80
2022/08/28 07:58:37;;;;;;;7.90;2.28;;;;;;;17.17;75.13;68676.97;4909527;29;20051;-79
2022/08/28 08:01:03;;;;;;;10.82;2.83;;;;;;;;;;4914499;29;20036;-80
2022/08/28 08:03:30;;;;;;;8.38;2.10;;;;;;;17.39;72.83;68706.31;4910995;29;20051;-80
2022/08/28 08:06:02;;;;;;;8.85;2.50;;;;;;;17.58;72.04;68722.63;4894767;29;20048;-79
2022/08/28 08:08:28;;;;;;;10.25;2.53;;;;;;;17.64;71.11;68726.19;4914728;29;20044;-78
2022/08/28 08:11:06;;;;;;;6.75;2.10;;;;;;;17.70;70.83;68741.69;4914049;29;20112;-79
2022/08/28 08:13:33;;;;;;;8.52;2.65;;;;;;;17.80;70.52;68747.72;4920275;29;20070;-79
2022/08/28 08:16:04;;;;;;;6.82;2.17;;;;;;;17.87;70.03;68754.59;4914842;29;20051;-78
2022/08/28 08:18:29;;;;;;;5.78;2.67;;;;;;;17.90;69.58;68758.56;4927703;29;20134;-78
2022/08/28 08:20:55;;;;;;;6.28;2.22;;;;;;;17.92;69.90;68757.59;4925646;29;20772;-78
2022/08/28 08:23:20;;;;;;;5.88;2.42;;;;;;;17.87;68.91;68752.47;4925130;29;20886;-78
2022/08/28 08:25:56;;;;;;;8.95;2.10;;;;;;;17.92;69.48;68760.28;4918682;29;20072;-79
2022/08/28 08:28:22;;;;;;;6.53;1.98;;;;;;;18.05;69.21;68780.50;4909179;29;20036;-78
2022/08/28 08:30:47;;;;;;;8.32;2.38;;;;;;;18.23;67.90;68795.09;4925905;29;20535;-78
2022/08/28 08:33:13;;;;;;;8.77;1.85;;;;;;;18.24;68.55;68796.81;4923607;29;20036;-79
2022/08/28 08:35:38;;;;;;;5.78;2.55;;;;;;;18.07;67.69;68782.22;4927301;29;20040;-78
2022/08/28 08:38:05;;;;;;;8.10;2.58;;;;;;;;;;4924455;29;20139;-77
2022/08/28 08:40:30;;;;;;;5.60;1.95;;;;;;;18.11;66.37;68786.78;4928418;29;20036;-78
2022/08/28 08:42:56;;;;;;;6.65;1.83;;;;;;;18.07;66.84;68782.22;4921479;29;20044;-79
2022/08/28 08:45:25;;;;;;;6.60;1.50;;;;;;;18.25;66.22;68797.38;4888802;29;20128;-79
2022/08/28 08:47:51;;;;;;;5.45;1.98;;;;;;;;;;4913056;29;20091;-79
2022/08/28 08:50:21;;;;;;;6.00;1.70;;;;;;;18.26;65.93;68796.41;4907345;29;20049;-79
2022/08/28 08:53:05;;;;;;;5.93;1.98;;;;;;;;;;4903950;29;20505;-79
2022/08/28 08:55:34;;;;;;;8.45;2.50;;;;;;;;;;4891959;29;20048;-79
2022/08/28 08:58:18;;;;;;;7.20;1.65;;;;;;;18.74;63.90;68857.03;4881043;29;20497;-79
2022/08/28 09:01:22;;;;;;;7.88;1.70;;;;;;;18.79;62.93;68857.94;4912913;29;20128;-79
2022/08/28 09:04:06;;;;;;;5.88;1.83;;;;;;;;;;4841613;29;20129;-79
2022/08/28 09:06:41;;;;;;;6.20;2.15;;;;;;;18.86;62.39;68862.66;4905133;29;20408;-78
2022/08/28 09:09:10;;;;;;;7.03;2.20;;;;;;;;;;4912050;29;20032;-78
2022/08/28 09:11:52;;;;;;;;;;;;;;;18.76;63.29;68853.91;4898967;29;20055;-76
2022/08/28 09:14:17;;;;;;;5.57;2.00;;;;;;;;;;4910210;29;19922;-77
2022/08/28 09:16:44;;;;;;;7.15;1.70;;;;;;;;;;4909698;29;20048;-79
2022/08/28 09:19:13;;;;;;;8.35;2.03;;;;;;;19.03;61.76;68884.75;4916124;29;20528;-77
2022/08/28 09:21:42;;;;;;;5.93;1.63;;;;;;;19.21;60.96;68898.78;4921717;29;20103;-79
2022/08/28 09:24:25;;;;;;;5.95;1.90;;;;;;;19.41;60.48;68924.34;4916063;29;20044;-79
2022/08/28 09:26:52;;;;;;;7.55;2.20;;;;;;;;;;4912496;29;20106;-79
2022/08/28 09:29:26;;;;;;;5.72;1.73;;;;;;;19.37;61.07;68920.34;4919173;29;20044;-79
2022/08/28 09:31:52;;;;;;;6.60;1.50;;;;;;;19.56;59.90;68944.19;4909533;29;20044;-79
2022/08/28 09:34:33;;;;;;;8.23;2.03;;;;;;;19.65;58.31;68953.31;4907057;29;20553;-79
2022/08/28 09:36:59;;;;;;;6.55;1.67;;;;;;;19.75;58.50;68962.63;4920077;29;20068;-79
2022/08/28 09:39:34;;;;;;;6.75;1.70;;;;;;;19.60;58.95;68948.75;4919494;29;20048;-78
2022/08/28 09:44:53;;;;;;;6.38;1.70;;;;;;;19.66;58.02;68959.88;4910585;29;20062;-80
2022/08/28 09:47:40;;;;;;;5.38;1.83;;;;;;;19.77;56.48;68967.06;4912720;29;20032;-77
2022/08/28 09:50:17;;;;;;;4.75;1.77;;;;;;;;;;4910814;29;20075;-79
2022/08/28 09:52:43;;;;;;;7.20;1.77;;;;;;;19.78;57.09;68968.75;4910564;29;20052;-79
2022/08/28 09:55:18;;;;;;;8.23;2.17;;;;;;;20.07;55.46;68998.06;4913978;29;20042;-79
2022/08/28 09:57:45;;;;;;;5.72;1.85;;;;;;;;;;4914548;29;20070;-79
2022/08/28 10:00:11;;;;;;;4.45;1.50;;;;;;;19.94;57.03;68985.91;4908998;29;20457;-78
2022/08/28 10:02:44;;;;;;;4.95;2.08;;;;;;;20.24;57.16;69019.63;4891320;29;20051;-79
2022/08/28 10:05:15;;;;;;;7.45;1.60;;;;;;;20.52;55.30;69045.69;4907284;29;20048;-80
2022/08/28 10:07:53;;;;;;;6.60;1.95;;;;;;;20.79;55.38;69081.41;4908074;29;20063;-79
2022/08/28 10:10:37;;;;;;;4.43;1.52;;;;;;;20.92;53.32;69090.88;4909764;29;20051;-78
2022/08/28 10:13:03;;;;;;;4.90;1.70;;;;;;;20.92;53.38;69096.28;4908004;29;20044;-79
2022/08/28 10:15:31;;;;;;;4.18;1.35;;;;;;;;;;4908745;29;20448;-77
2022/08/28 10:18:12;;;;;;;5.25;1.60;;;;;;;20.65;54.40;69065.97;4908313;29;20052;-78
2022/08/28 10:20:49;;;;;;;6.82;1.98;;;;;;;20.82;53.65;69082.13;4903261;29;20528;-79
2022/08/28 10:23:42;;;;;;;7.25;1.90;;;;;;;20.99;52.84;69108.56;4908869;29;20040;-78
2022/08/28 10:26:46;;;;;;;4.70;1.60;;;;;;;20.83;52.73;69086.00;4908147;29;20056;-79
2022/08/28 10:29:14;;;;;;;5.85;1.75;;;;;;;;;;4893690;29;20771;-80
2022/08/28 10:32:01;;;;;;;5.32;1.55;;;;;;;;;;4912489;29;20059;-80
2022/08/28 10:34:45;;;;;;;5.20;1.65;;;;;;;;;;4913269;29;20044;-79
2022/08/28 10:37:29;;;;;;;5.70;1.40;;;;;;;21.22;50.33;69129.47;4912856;29;20095;-79
2022/08/28 10:40:02;;;;;;;5.35;1.45;;;;;;;21.18;49.52;69125.47;4911846;29;20572;-78
2022/08/28 10:42:36;;;;;;;6.13;1.80;;;;;;;21.00;50.51;69101.56;4912103;29;20040;-79
2022/08/28 10:45:14;;;;;;;6.95;1.88;;;;;;;;;;4914208;29;20068;-79
2022/08/28 10:47:44;;;;;;;4.88;1.45;;;;;;;21.10;51.09;69113.03;4911554;29;20104;-78
2022/08/28 10:50:25;;;;;;;4.80;1.38;;;;;;;21.32;50.05;69138.19;4909768;29;20045;-78
2022/08/28 10:53:02;;;;;;;4.47;1.73;;;;;;;;;;4907774;29;20451;-78
2022/08/28 10:55:41;;;;;;;4.82;1.50;;;;;;;21.64;49.50;69176.41;4907875;29;20102;-78
2022/08/28 10:58:10;;;;;;;6.30;1.95;;;;;;;21.79;49.26;69190.28;4915315;29;20436;-78
2022/08/28 11:00:38;;;;;;;6.30;1.70;;;;;;;21.57;48.08;69168.38;4910868;29;20431;-79
2022/08/28 11:03:09;;;;;;;3.87;1.40;;;;;;;21.36;49.13;69140.06;4913943;29;20036;-79
2022/08/28 11:05:50;;;;;;;6.97;1.50;;;;;;;21.45;48.54;69155.22;4912528;29;20531;-78
2022/08/28 11:08:32;;;;;;;5.20;1.35;;;;;;;21.75;48.71;69185.69;4909875;29;20040;-79
2022/08/28 11:10:59;;;;;;;5.10;1.50;;;;;;;;;;4898957;29;20063;-79
2022/08/28 11:13:43;;;;;;;5.07;1.60;;;;;;;21.45;48.79;69154.66;4917881;29;20095;-78
2022/08/28 11:16:16;;;;;;;5.32;1.77;;;;;;;21.31;50.18;69134.34;4911933;29;20158;-79
2022/08/28 11:19:21;;;;;;;3.38;1.27;;;;;;;21.51;50.04;69161.50;4917096;29;20061;-80
2022/08/28 11:21:49;;;;;;;6.43;1.80;;;;;;;;;;4913536;29;20690;-80
2022/08/28 11:24:31;;;;;;;5.38;1.40;;;;;;;;;;4915373;29;20070;-80
2022/08/28 11:26:57;;;;;;;4.13;1.50;;;;;;;;;;4894734;29;20460;-79
2022/08/28 11:29:57;;;;;;;4.47;1.30;;;;;;;21.63;48.37;69175.81;4908265;29;20044;-79
2022/08/28 11:32:34;;;;;;;3.90;1.08;;;;;;;21.49;48.08;69157.09;4900714;29;20040;-79
2022/08/28 11:35:03;;;;;;;3.88;1.30;;;;;;;21.34;48.57;69143.19;4897442;29;20051;-79
2022/08/28 11:37:43;;;;;;;7.03;1.30;;;;;;;21.40;48.69;69144.06;4912559;29;20102;-80
2022/08/28 11:40:16;;;;;;;4.80;1.67;;;;;;;21.44;48.75;69150.81;4909635;29;20084;-80
2022/08/28 11:42:47;;;;;;;6.35;1.85;;;;;;;21.36;49.24;69145.50;4912033;29;20060;-80
2022/08/28 11:45:46;;;;;;;6.85;1.90;;;;;;;21.23;49.55;69127.88;4914215;29;20071;-80
2022/08/28 11:48:27;;;;;;;4.55;1.50;;;;;;;21.01;50.99;69106.00;4910904;29;20103;-79
2022/08/28 11:50:56;;;;;;;4.15;1.73;;;;;;;21.15;51.20;69118.75;4912732;29;20048;-80
2022/08/28 11:53:59;;;;;;;5.70;1.50;;;;;;;21.30;49.71;69135.34;4913061;29;20051;-79
2022/08/28 11:57:03;;;;;;;4.78;1.67;;;;;;;21.57;48.30;69166.25;4910399;29;20040;-79
2022/08/28 11:59:43;;;;;;;4.13;1.50;;;;;;;21.72;48.58;69185.56;4906399;29;20049;-79
2022/08/28 12:02:37;;;;;;;3.35;1.10;;;;;;;21.94;47.69;69210.16;4884082;29;20324;-80
2022/08/28 12:05:06;;;;;;;4.13;1.40;;;;;;;21.82;46.89;69197.00;4892954;29;20072;-80
2022/08/28 12:07:35;;;;;;;3.50;1.60;;;;;;;;;;4892885;29;20378;-80
2022/08/28 12:10:01;;;;;;;6.38;1.38;;;;;;;21.77;45.47;69191.25;4891898;29;20131;-80
2022/08/28 12:12:44;;;;;;;3.20;1.08;;;;;;;21.57;46.37;69168.94;4891899;29;20492;-80
2022/08/28 12:15:30;;;;;;;3.42;1.40;;;;;;;21.46;46.90;69156.34;4891764;29;20052;-80
2022/08/28 12:18:10;;;;;;;4.90;1.40;;;;;;;;;;4911821;29;20080;-80
2022/08/28 12:20:45;;;;;;;4.07;1.50;;;;;;;22.28;45.46;69248.53;4912848;29;20036;-79
2022/08/28 12:23:22;;;;;;;3.60;1.38;;;;;;;22.12;44.58;69224.75;4898222;29;20048;-80
2022/08/28 12:25:57;;;;;;;5.85;2.17;;;;;;;21.81;45.80;69190.44;4912417;29;20131;-77